sensor_id;sensor_type;location;lat;lon;timestamp;temperature;humidity
12700;DHT22;6414;49.570;6.060;2023-12-20T00:01:11;5.10;99.90
12700;DHT22;6414;49.570;6.060;2023-12-20T00:03:58;5.10;99.90
12700;DHT22;6414;49.570;6.060;2023-12-20T00:06:44;5.10;99.90
12700;DHT22;6414;49.570;6.060;2023-12-20T00:09:30;5.00;99.90
12700;DHT22;6414;49.570;6.060;2023-12-20T00:12:16;5.00;99.90
12700;DHT22;6414;49.570;6.060;2023-12-20T00:15:02;5.00;99.90
12700;DHT22;6414;49.570;6.060;2023-12-20T00:17:49;5.10;99.90
12700;DHT22;6414;49.570;6.060;2023-12-20T00:20:34;5.10;99.90
12700;DHT22;6414;49.570;6.060;2023-12-20T00:23:21;5.00;99.90
12700;DHT22;6414;49.570;6.060;2023-12-20T00:26:07;5.00;99.90
12700;DHT22;6414;49.570;6.060;2023-12-20T00:28:53;5.00;99.90
12700;DHT22;6414;49.570;6.060;2023-12-20T00:31:40;5.00;99.90
12700;DHT22;6414;49.570;6.060;2023-12-20T00:34:25;4.90;99.90
12700;DHT22;6414;49.570;6.060;2023-12-20T00:37:11;5.00;99.90
12700;DHT22;6414;49.570;6.060;2023-12-20T00:39:57;5.00;99.90
12700;DHT22;6414;49.570;6.060;2023-12-20T00:42:43;4.90;99.90
12700;DHT22;6414;49.570;6.060;2023-12-20T00:45:29;4.90;99.90
12700;DHT22;6414;49.570;6.060;2023-12-20T00:48:16;4.90;99.90
12700;DHT22;6414;49.570;6.060;2023-12-20T00:51:01;4.90;99.90
12700;DHT22;6414;49.570;6.060;2023-12-20T00:53:49;4.90;99.90
12700;DHT22;6414;49.570;6.060;2023-12-20T00:56:35;4.80;99.90
12700;DHT22;6414;49.570;6.060;2023-12-20T00:59:20;4.80;99.90
12700;DHT22;6414;49.570;6.060;2023-12-20T01:02:06;4.80;99.90
12700;DHT22;6414;49.570;6.060;2023-12-20T01:04:53;4.70;99.90
12700;DHT22;6414;49.570;6.060;2023-12-20T01:07:39;4.80;99.90
12700;DHT22;6414;49.570;6.060;2023-12-20T01:10:26;4.80;99.90
12700;DHT22;6414;49.570;6.060;2023-12-20T01:13:12;4.80;99.90
12700;DHT22;6414;49.570;6.060;2023-12-20T01:15:58;4.80;99.90
12700;DHT22;6414;49.570;6.060;2023-12-20T01:18:44;4.70;99.90
12700;DHT22;6414;49.570;6.060;2023-12-20T01:21:30;4.80;99.90
12700;DHT22;6414;49.570;6.060;2023-12-20T01:24:16;4.80;99.90
12700;DHT22;6414;49.570;6.060;2023-12-20T01:27:02;4.80;99.90
12700;DHT22;6414;49.570;6.060;2023-12-20T01:29:49;4.70;99.90
12700;DHT22;6414;49.570;6.060;2023-12-20T01:32:35;4.70;99.90
12700;DHT22;6414;49.570;6.060;2023-12-20T01:35:21;4.70;99.90
12700;DHT22;6414;49.570;6.060;2023-12-20T01:38:07;4.70;99.90
12700;DHT22;6414;49.570;6.060;2023-12-20T01:40:53;4.80;99.90
12700;DHT22;6414;49.570;6.060;2023-12-20T01:43:39;4.80;99.90
12700;DHT22;6414;49.570;6.060;2023-12-20T01:46:24;4.80;99.90
12700;DHT22;6414;49.570;6.060;2023-12-20T01:49:10;4.80;99.90
12700;DHT22;6414;49.570;6.060;2023-12-20T01:51:56;4.80;99.90
12700;DHT22;6414;49.570;6.060;2023-12-20T01:54:42;4.80;99.90
12700;DHT22;6414;49.570;6.060;2023-12-20T01:57:28;4.80;99.90
12700;DHT22;6414;49.570;6.060;2023-12-20T02:00:14;4.80;99.90
12700;DHT22;6414;49.570;6.060;2023-12-20T02:03:00;4.80;99.90
12700;DHT22;6414;49.570;6.060;2023-12-20T02:05:45;4.80;99.90
12700;DHT22;6414;49.570;6.060;2023-12-20T02:08:31;4.80;99.90
12700;DHT22;6414;49.570;6.060;2023-12-20T02:11:17;4.80;99.90
12700;DHT22;6414;49.570;6.060;2023-12-20T02:14:03;4.80;99.90
12700;DHT22;6414;49.570;6.060;2023-12-20T02:16:48;4.80;99.90
12700;DHT22;6414;49.570;6.060;2023-12-20T02:19:34;4.80;99.90
12700;DHT22;6414;49.570;6.060;2023-12-20T02:22:20;4.80;99.90
12700;DHT22;6414;49.570;6.060;2023-12-20T02:25:07;4.70;99.90
12700;DHT22;6414;49.570;6.060;2023-12-20T02:27:52;4.80;99.90
12700;DHT22;6414;49.570;6.060;2023-12-20T02:30:38;4.70;99.90
12700;DHT22;6414;49.570;6.060;2023-12-20T02:33:24;4.80;99.90
12700;DHT22;6414;49.570;6.060;2023-12-20T02:36:10;4.80;99.90
12700;DHT22;6414;49.570;6.060;2023-12-20T02:38:55;4.80;99.90
12700;DHT22;6414;49.570;6.060;2023-12-20T02:41:41;4.80;99.90
12700;DHT22;6414;49.570;6.060;2023-12-20T02:44:27;4.80;99.90
12700;DHT22;6414;49.570;6.060;2023-12-20T02:47:12;4.80;99.90
12700;DHT22;6414;49.570;6.060;2023-12-20T02:49:58;4.80;99.90
12700;DHT22;6414;49.570;6.060;2023-12-20T02:52:47;4.80;99.90
12700;DHT22;6414;49.570;6.060;2023-12-20T02:55:33;4.70;99.90
12700;DHT22;6414;49.570;6.060;2023-12-20T02:58:19;4.80;99.90
12700;DHT22;6414;49.570;6.060;2023-12-20T03:01:04;4.70;99.90
12700;DHT22;6414;49.570;6.060;2023-12-20T03:03:50;4.70;99.90
12700;DHT22;6414;49.570;6.060;2023-12-20T03:06:36;4.70;99.90
12700;DHT22;6414;49.570;6.060;2023-12-20T03:09:22;4.80;99.90
12700;DHT22;6414;49.570;6.060;2023-12-20T03:12:07;4.70;99.90
12700;DHT22;6414;49.570;6.060;2023-12-20T03:14:53;4.70;99.90
12700;DHT22;6414;49.570;6.060;2023-12-20T03:17:39;4.60;99.90
12700;DHT22;6414;49.570;6.060;2023-12-20T03:20:25;4.50;99.90
12700;DHT22;6414;49.570;6.060;2023-12-20T03:23:14;4.40;99.90
12700;DHT22;6414;49.570;6.060;2023-12-20T03:25:59;4.30;99.90
12700;DHT22;6414;49.570;6.060;2023-12-20T03:28:45;4.20;99.90
12700;DHT22;6414;49.570;6.060;2023-12-20T03:31:31;4.20;99.90
12700;DHT22;6414;49.570;6.060;2023-12-20T03:34:17;4.10;99.90
12700;DHT22;6414;49.570;6.060;2023-12-20T03:37:03;4.10;99.90
12700;DHT22;6414;49.570;6.060;2023-12-20T03:39:49;4.00;99.90
12700;DHT22;6414;49.570;6.060;2023-12-20T03:42:34;4.00;99.90
12700;DHT22;6414;49.570;6.060;2023-12-20T03:45:20;3.80;99.90
12700;DHT22;6414;49.570;6.060;2023-12-20T03:48:06;3.60;99.90
12700;DHT22;6414;49.570;6.060;2023-12-20T03:50:52;3.60;99.90
12700;DHT22;6414;49.570;6.060;2023-12-20T03:53:38;3.50;99.90
12700;DHT22;6414;49.570;6.060;2023-12-20T03:56:24;3.40;99.90
12700;DHT22;6414;49.570;6.060;2023-12-20T03:59:09;3.30;99.90
12700;DHT22;6414;49.570;6.060;2023-12-20T04:01:55;3.20;99.90
12700;DHT22;6414;49.570;6.060;2023-12-20T04:04:40;3.10;99.90
12700;DHT22;6414;49.570;6.060;2023-12-20T04:07:27;3.10;99.90
12700;DHT22;6414;49.570;6.060;2023-12-20T04:10:13;3.20;99.90
12700;DHT22;6414;49.570;6.060;2023-12-20T04:12:59;3.10;99.90
12700;DHT22;6414;49.570;6.060;2023-12-20T04:15:45;2.90;99.90
12700;DHT22;6414;49.570;6.060;2023-12-20T04:18:31;2.80;99.90
12700;DHT22;6414;49.570;6.060;2023-12-20T04:21:17;2.50;99.90
12700;DHT22;6414;49.570;6.060;2023-12-20T04:24:03;2.40;99.90
12700;DHT22;6414;49.570;6.060;2023-12-20T04:26:48;2.40;99.90
12700;DHT22;6414;49.570;6.060;2023-12-20T04:29:34;2.40;99.90
12700;DHT22;6414;49.570;6.060;2023-12-20T04:32:20;2.30;99.90
12700;DHT22;6414;49.570;6.060;2023-12-20T04:35:06;2.30;99.90
12700;DHT22;6414;49.570;6.060;2023-12-20T04:37:52;2.30;99.90
12700;DHT22;6414;49.570;6.060;2023-12-20T04:40:37;2.20;99.90
12700;DHT22;6414;49.570;6.060;2023-12-20T04:43:24;2.20;99.90
12700;DHT22;6414;49.570;6.060;2023-12-20T04:46:09;2.20;99.90
12700;DHT22;6414;49.570;6.060;2023-12-20T04:48:55;2.20;99.90
12700;DHT22;6414;49.570;6.060;2023-12-20T04:51:40;2.50;99.90
12700;DHT22;6414;49.570;6.060;2023-12-20T04:54:26;2.70;99.90
12700;DHT22;6414;49.570;6.060;2023-12-20T04:57:12;2.90;99.90
12700;DHT22;6414;49.570;6.060;2023-12-20T04:59:58;3.00;99.90
12700;DHT22;6414;49.570;6.060;2023-12-20T05:02:44;3.10;99.90
12700;DHT22;6414;49.570;6.060;2023-12-20T05:05:30;3.00;99.90
12700;DHT22;6414;49.570;6.060;2023-12-20T05:08:15;2.90;99.90
12700;DHT22;6414;49.570;6.060;2023-12-20T05:11:01;2.90;99.90
12700;DHT22;6414;49.570;6.060;2023-12-20T05:13:47;3.00;99.90
12700;DHT22;6414;49.570;6.060;2023-12-20T05:16:33;3.20;99.90
12700;DHT22;6414;49.570;6.060;2023-12-20T05:19:18;3.30;99.90
12700;DHT22;6414;49.570;6.060;2023-12-20T05:22:04;3.30;99.90
12700;DHT22;6414;49.570;6.060;2023-12-20T05:24:50;3.40;99.90
12700;DHT22;6414;49.570;6.060;2023-12-20T05:27:36;3.40;99.90
12700;DHT22;6414;49.570;6.060;2023-12-20T05:30:22;3.40;99.90
12700;DHT22;6414;49.570;6.060;2023-12-20T05:33:08;3.40;99.90
12700;DHT22;6414;49.570;6.060;2023-12-20T05:35:54;3.50;99.90
12700;DHT22;6414;49.570;6.060;2023-12-20T05:38:40;3.60;99.90
12700;DHT22;6414;49.570;6.060;2023-12-20T05:41:26;3.70;99.90
12700;DHT22;6414;49.570;6.060;2023-12-20T05:44:11;3.70;99.90
12700;DHT22;6414;49.570;6.060;2023-12-20T05:46:58;3.70;99.90
12700;DHT22;6414;49.570;6.060;2023-12-20T05:49:43;3.70;99.90
12700;DHT22;6414;49.570;6.060;2023-12-20T05:52:29;3.70;99.90
12700;DHT22;6414;49.570;6.060;2023-12-20T05:55:15;3.80;99.90
12700;DHT22;6414;49.570;6.060;2023-12-20T05:58:01;3.70;99.90
12700;DHT22;6414;49.570;6.060;2023-12-20T06:00:47;3.60;99.90
12700;DHT22;6414;49.570;6.060;2023-12-20T06:03:33;3.50;99.90
12700;DHT22;6414;49.570;6.060;2023-12-20T06:06:19;3.50;99.90
12700;DHT22;6414;49.570;6.060;2023-12-20T06:09:04;3.40;99.90
12700;DHT22;6414;49.570;6.060;2023-12-20T06:11:50;3.40;99.90
12700;DHT22;6414;49.570;6.060;2023-12-20T06:14:36;3.40;99.90
12700;DHT22;6414;49.570;6.060;2023-12-20T06:17:21;3.40;99.90
12700;DHT22;6414;49.570;6.060;2023-12-20T06:20:07;3.40;99.90
12700;DHT22;6414;49.570;6.060;2023-12-20T06:22:53;3.40;99.90
12700;DHT22;6414;49.570;6.060;2023-12-20T06:25:39;3.40;99.90
12700;DHT22;6414;49.570;6.060;2023-12-20T06:28:25;3.40;99.90
12700;DHT22;6414;49.570;6.060;2023-12-20T06:31:11;3.40;99.90
12700;DHT22;6414;49.570;6.060;2023-12-20T06:33:56;3.40;99.90
12700;DHT22;6414;49.570;6.060;2023-12-20T06:36:42;3.40;99.90
12700;DHT22;6414;49.570;6.060;2023-12-20T06:39:29;3.50;99.90
12700;DHT22;6414;49.570;6.060;2023-12-20T06:42:14;3.50;99.90
12700;DHT22;6414;49.570;6.060;2023-12-20T06:45:00;3.50;99.90
12700;DHT22;6414;49.570;6.060;2023-12-20T06:47:46;3.60;99.90
12700;DHT22;6414;49.570;6.060;2023-12-20T06:50:32;3.60;99.90
12700;DHT22;6414;49.570;6.060;2023-12-20T06:53:18;3.70;99.90
12700;DHT22;6414;49.570;6.060;2023-12-20T06:56:03;3.70;99.90
12700;DHT22;6414;49.570;6.060;2023-12-20T06:58:49;3.70;99.90
12700;DHT22;6414;49.570;6.060;2023-12-20T07:01:35;3.80;99.90
12700;DHT22;6414;49.570;6.060;2023-12-20T07:04:21;3.80;99.90
12700;DHT22;6414;49.570;6.060;2023-12-20T07:07:06;3.90;99.90
12700;DHT22;6414;49.570;6.060;2023-12-20T07:09:52;3.90;99.90
12700;DHT22;6414;49.570;6.060;2023-12-20T07:12:38;3.90;99.90
12700;DHT22;6414;49.570;6.060;2023-12-20T07:15:23;4.00;99.90
12700;DHT22;6414;49.570;6.060;2023-12-20T07:18:09;4.00;99.90
12700;DHT22;6414;49.570;6.060;2023-12-20T07:20:55;4.00;99.90
12700;DHT22;6414;49.570;6.060;2023-12-20T07:23:36;4.00;99.90
12700;DHT22;6414;49.570;6.060;2023-12-20T07:26:22;4.00;99.90
12700;DHT22;6414;49.570;6.060;2023-12-20T07:29:09;4.00;99.90
12700;DHT22;6414;49.570;6.060;2023-12-20T07:31:55;4.10;99.90
12700;DHT22;6414;49.570;6.060;2023-12-20T07:34:41;4.00;99.90
12700;DHT22;6414;49.570;6.060;2023-12-20T07:37:28;4.00;99.90
12700;DHT22;6414;49.570;6.060;2023-12-20T07:40:14;4.00;99.90
12700;DHT22;6414;49.570;6.060;2023-12-20T07:43:01;4.00;99.90
12700;DHT22;6414;49.570;6.060;2023-12-20T07:45:47;4.00;99.90
12700;DHT22;6414;49.570;6.060;2023-12-20T07:48:36;3.90;99.90
12700;DHT22;6414;49.570;6.060;2023-12-20T07:51:23;3.90;99.90
12700;DHT22;6414;49.570;6.060;2023-12-20T07:54:09;3.90;99.90
12700;DHT22;6414;49.570;6.060;2023-12-20T07:56:55;3.90;99.90
12700;DHT22;6414;49.570;6.060;2023-12-20T07:59:41;3.90;99.90
12700;DHT22;6414;49.570;6.060;2023-12-20T08:02:27;4.00;99.90
12700;DHT22;6414;49.570;6.060;2023-12-20T08:05:14;4.00;99.90
12700;DHT22;6414;49.570;6.060;2023-12-20T08:08:00;4.10;99.90
12700;DHT22;6414;49.570;6.060;2023-12-20T08:10:46;4.10;99.90
12700;DHT22;6414;49.570;6.060;2023-12-20T08:13:32;4.10;99.90
12700;DHT22;6414;49.570;6.060;2023-12-20T08:16:18;4.10;99.90
12700;DHT22;6414;49.570;6.060;2023-12-20T08:19:04;4.10;99.90
12700;DHT22;6414;49.570;6.060;2023-12-20T08:21:51;4.10;99.90
12700;DHT22;6414;49.570;6.060;2023-12-20T08:24:37;4.10;99.90
12700;DHT22;6414;49.570;6.060;2023-12-20T08:27:24;4.00;99.90
12700;DHT22;6414;49.570;6.060;2023-12-20T08:30:10;3.90;99.90
12700;DHT22;6414;49.570;6.060;2023-12-20T08:32:56;3.90;99.90
12700;DHT22;6414;49.570;6.060;2023-12-20T08:35:42;3.90;99.90
12700;DHT22;6414;49.570;6.060;2023-12-20T08:38:28;3.90;99.90
12700;DHT22;6414;49.570;6.060;2023-12-20T08:41:15;3.90;99.90
12700;DHT22;6414;49.570;6.060;2023-12-20T08:44:00;4.00;99.90
12700;DHT22;6414;49.570;6.060;2023-12-20T08:46:46;4.10;99.90
12700;DHT22;6414;49.570;6.060;2023-12-20T08:49:32;4.00;99.90
12700;DHT22;6414;49.570;6.060;2023-12-20T08:52:18;4.00;99.90
12700;DHT22;6414;49.570;6.060;2023-12-20T08:55:05;4.10;99.90
12700;DHT22;6414;49.570;6.060;2023-12-20T08:57:51;4.20;99.90
12700;DHT22;6414;49.570;6.060;2023-12-20T09:00:37;4.20;99.90
12700;DHT22;6414;49.570;6.060;2023-12-20T09:03:24;4.20;99.90
12700;DHT22;6414;49.570;6.060;2023-12-20T09:06:10;4.20;99.90
12700;DHT22;6414;49.570;6.060;2023-12-20T09:08:56;4.20;99.90
12700;DHT22;6414;49.570;6.060;2023-12-20T09:11:43;4.20;99.90
12700;DHT22;6414;49.570;6.060;2023-12-20T09:14:28;4.20;99.90
12700;DHT22;6414;49.570;6.060;2023-12-20T09:17:18;4.10;99.90
12700;DHT22;6414;49.570;6.060;2023-12-20T09:20:00;4.10;99.90
12700;DHT22;6414;49.570;6.060;2023-12-20T09:22:46;4.00;99.90
12700;DHT22;6414;49.570;6.060;2023-12-20T09:25:31;4.00;99.90
12700;DHT22;6414;49.570;6.060;2023-12-20T09:28:17;3.90;99.90
12700;DHT22;6414;49.570;6.060;2023-12-20T09:31:03;4.00;99.90
12700;DHT22;6414;49.570;6.060;2023-12-20T09:33:49;3.90;99.90
12700;DHT22;6414;49.570;6.060;2023-12-20T09:36:34;4.00;99.90
12700;DHT22;6414;49.570;6.060;2023-12-20T09:39:21;4.00;99.90
12700;DHT22;6414;49.570;6.060;2023-12-20T09:42:06;4.10;99.90
12700;DHT22;6414;49.570;6.060;2023-12-20T09:44:52;4.10;99.90
12700;DHT22;6414;49.570;6.060;2023-12-20T09:47:38;4.40;99.90
12700;DHT22;6414;49.570;6.060;2023-12-20T09:50:24;4.70;99.90
12700;DHT22;6414;49.570;6.060;2023-12-20T09:53:10;4.50;99.90
12700;DHT22;6414;49.570;6.060;2023-12-20T09:55:57;4.40;99.90
12700;DHT22;6414;49.570;6.060;2023-12-20T09:58:41;4.40;99.90
12700;DHT22;6414;49.570;6.060;2023-12-20T10:01:27;4.50;99.90
12700;DHT22;6414;49.570;6.060;2023-12-20T10:04:13;4.50;99.90
12700;DHT22;6414;49.570;6.060;2023-12-20T10:07:01;4.60;99.90
12700;DHT22;6414;49.570;6.060;2023-12-20T10:09:44;4.60;99.90
12700;DHT22;6414;49.570;6.060;2023-12-20T10:12:30;4.70;99.90
12700;DHT22;6414;49.570;6.060;2023-12-20T10:15:16;4.60;99.90
12700;DHT22;6414;49.570;6.060;2023-12-20T10:18:02;4.60;99.90
12700;DHT22;6414;49.570;6.060;2023-12-20T10:20:48;4.60;99.90
12700;DHT22;6414;49.570;6.060;2023-12-20T10:23:34;4.60;99.90
12700;DHT22;6414;49.570;6.060;2023-12-20T10:26:24;4.50;99.90
12700;DHT22;6414;49.570;6.060;2023-12-20T10:29:09;4.60;99.90
12700;DHT22;6414;49.570;6.060;2023-12-20T10:31:54;4.50;99.90
12700;DHT22;6414;49.570;6.060;2023-12-20T10:34:41;4.50;99.90
12700;DHT22;6414;49.570;6.060;2023-12-20T10:37:26;4.40;99.90
12700;DHT22;6414;49.570;6.060;2023-12-20T10:40:12;4.40;99.90
12700;DHT22;6414;49.570;6.060;2023-12-20T10:43:43;4.40;99.90
12700;DHT22;6414;49.570;6.060;2023-12-20T10:46:29;4.50;99.90
12700;DHT22;6414;49.570;6.060;2023-12-20T10:49:15;4.40;99.90
12700;DHT22;6414;49.570;6.060;2023-12-20T10:52:01;4.50;99.90
12700;DHT22;6414;49.570;6.060;2023-12-20T10:54:47;4.50;99.90
12700;DHT22;6414;49.570;6.060;2023-12-20T10:57:33;4.60;99.90
12700;DHT22;6414;49.570;6.060;2023-12-20T11:00:18;4.70;99.90
12700;DHT22;6414;49.570;6.060;2023-12-20T11:03:05;4.70;99.90
12700;DHT22;6414;49.570;6.060;2023-12-20T11:05:57;4.80;99.90
12700;DHT22;6414;49.570;6.060;2023-12-20T11:08:41;4.80;99.90
12700;DHT22;6414;49.570;6.060;2023-12-20T11:11:37;4.90;99.90
12700;DHT22;6414;49.570;6.060;2023-12-20T11:14:25;4.90;99.90
12700;DHT22;6414;49.570;6.060;2023-12-20T11:17:10;4.90;99.90
12700;DHT22;6414;49.570;6.060;2023-12-20T11:22:53;5.00;99.90
12700;DHT22;6414;49.570;6.060;2023-12-20T11:25:55;5.00;99.90
12700;DHT22;6414;49.570;6.060;2023-12-20T11:28:40;4.80;99.90
12700;DHT22;6414;49.570;6.060;2023-12-20T11:31:26;4.90;99.90
12700;DHT22;6414;49.570;6.060;2023-12-20T11:34:15;4.90;99.90
12700;DHT22;6414;49.570;6.060;2023-12-20T11:37:01;4.80;99.90
12700;DHT22;6414;49.570;6.060;2023-12-20T11:39:59;4.70;99.90
12700;DHT22;6414;49.570;6.060;2023-12-20T11:42:41;4.70;99.90
12700;DHT22;6414;49.570;6.060;2023-12-20T11:45:24;4.70;99.90
12700;DHT22;6414;49.570;6.060;2023-12-20T11:48:09;4.70;99.90
12700;DHT22;6414;49.570;6.060;2023-12-20T11:50:55;4.80;99.90
12700;DHT22;6414;49.570;6.060;2023-12-20T11:53:41;4.80;99.90
12700;DHT22;6414;49.570;6.060;2023-12-20T11:56:27;4.80;99.90
12700;DHT22;6414;49.570;6.060;2023-12-20T11:59:12;4.90;99.90
12700;DHT22;6414;49.570;6.060;2023-12-20T12:01:58;4.90;99.90
12700;DHT22;6414;49.570;6.060;2023-12-20T12:04:45;5.00;99.90
12700;DHT22;6414;49.570;6.060;2023-12-20T12:07:30;5.00;99.90
12700;DHT22;6414;49.570;6.060;2023-12-20T12:10:16;5.00;99.90
12700;DHT22;6414;49.570;6.060;2023-12-20T12:13:02;5.00;99.90
12700;DHT22;6414;49.570;6.060;2023-12-20T12:15:48;5.00;99.90
12700;DHT22;6414;49.570;6.060;2023-12-20T12:18:33;5.00;99.90
12700;DHT22;6414;49.570;6.060;2023-12-20T12:21:19;5.00;99.90
12700;DHT22;6414;49.570;6.060;2023-12-20T12:24:08;5.00;99.90
12700;DHT22;6414;49.570;6.060;2023-12-20T12:26:56;5.00;99.90
12700;DHT22;6414;49.570;6.060;2023-12-20T12:29:40;5.00;99.90
12700;DHT22;6414;49.570;6.060;2023-12-20T12:32:26;5.00;99.90
12700;DHT22;6414;49.570;6.060;2023-12-20T12:35:12;5.00;99.90
12700;DHT22;6414;49.570;6.060;2023-12-20T12:37:58;5.10;99.90
12700;DHT22;6414;49.570;6.060;2023-12-20T12:40:43;5.00;99.90
12700;DHT22;6414;49.570;6.060;2023-12-20T12:43:29;5.00;99.90
12700;DHT22;6414;49.570;6.060;2023-12-20T12:46:15;5.00;99.90
12700;DHT22;6414;49.570;6.060;2023-12-20T12:49:01;5.00;99.90
12700;DHT22;6414;49.570;6.060;2023-12-20T12:51:47;5.10;99.90
12700;DHT22;6414;49.570;6.060;2023-12-20T12:54:33;5.10;99.90
12700;DHT22;6414;49.570;6.060;2023-12-20T12:57:19;5.10;99.90
12700;DHT22;6414;49.570;6.060;2023-12-20T13:00:04;5.20;99.90
12700;DHT22;6414;49.570;6.060;2023-12-20T13:02:50;5.30;99.90
12700;DHT22;6414;49.570;6.060;2023-12-20T13:05:36;5.30;99.90
12700;DHT22;6414;49.570;6.060;2023-12-20T13:08:22;5.30;99.90
12700;DHT22;6414;49.570;6.060;2023-12-20T13:11:08;5.30;99.90
12700;DHT22;6414;49.570;6.060;2023-12-20T13:13:54;5.20;99.90
12700;DHT22;6414;49.570;6.060;2023-12-20T13:16:40;5.20;99.90
12700;DHT22;6414;49.570;6.060;2023-12-20T13:19:26;5.20;99.90
12700;DHT22;6414;49.570;6.060;2023-12-20T13:22:12;5.30;99.90
12700;DHT22;6414;49.570;6.060;2023-12-20T13:24:57;5.30;99.90
12700;DHT22;6414;49.570;6.060;2023-12-20T13:27:43;5.30;99.90
12700;DHT22;6414;49.570;6.060;2023-12-20T13:30:29;5.30;99.90
12700;DHT22;6414;49.570;6.060;2023-12-20T13:33:15;5.40;99.90
12700;DHT22;6414;49.570;6.060;2023-12-20T13:36:01;5.40;99.90
12700;DHT22;6414;49.570;6.060;2023-12-20T13:38:47;5.50;99.90
12700;DHT22;6414;49.570;6.060;2023-12-20T13:41:33;5.40;99.90
12700;DHT22;6414;49.570;6.060;2023-12-20T13:44:18;5.50;99.90
12700;DHT22;6414;49.570;6.060;2023-12-20T13:47:04;5.40;99.90
12700;DHT22;6414;49.570;6.060;2023-12-20T13:49:50;5.40;99.90
12700;DHT22;6414;49.570;6.060;2023-12-20T13:52:37;5.40;99.90
12700;DHT22;6414;49.570;6.060;2023-12-20T13:55:22;5.50;99.90
12700;DHT22;6414;49.570;6.060;2023-12-20T13:58:08;5.50;99.90
12700;DHT22;6414;49.570;6.060;2023-12-20T14:00:57;5.50;99.90
12700;DHT22;6414;49.570;6.060;2023-12-20T14:03:43;5.50;99.90
12700;DHT22;6414;49.570;6.060;2023-12-20T14:06:30;5.50;99.90
12700;DHT22;6414;49.570;6.060;2023-12-20T14:09:16;5.50;99.90
12700;DHT22;6414;49.570;6.060;2023-12-20T14:12:02;5.50;99.90
12700;DHT22;6414;49.570;6.060;2023-12-20T14:14:48;5.50;99.90
12700;DHT22;6414;49.570;6.060;2023-12-20T14:17:33;5.40;99.90
12700;DHT22;6414;49.570;6.060;2023-12-20T14:20:21;5.50;99.90
12700;DHT22;6414;49.570;6.060;2023-12-20T14:23:07;5.50;99.90
12700;DHT22;6414;49.570;6.060;2023-12-20T14:25:53;5.50;99.90
12700;DHT22;6414;49.570;6.060;2023-12-20T14:28:39;5.50;99.90
12700;DHT22;6414;49.570;6.060;2023-12-20T14:31:24;5.50;99.90
12700;DHT22;6414;49.570;6.060;2023-12-20T14:34:10;5.60;99.90
12700;DHT22;6414;49.570;6.060;2023-12-20T14:36:56;5.60;99.90
12700;DHT22;6414;49.570;6.060;2023-12-20T14:39:42;5.60;99.90
12700;DHT22;6414;49.570;6.060;2023-12-20T14:42:28;5.60;99.90
12700;DHT22;6414;49.570;6.060;2023-12-20T14:45:15;5.60;99.90
12700;DHT22;6414;49.570;6.060;2023-12-20T14:48:01;5.70;99.90
12700;DHT22;6414;49.570;6.060;2023-12-20T14:50:47;5.60;99.90
12700;DHT22;6414;49.570;6.060;2023-12-20T14:53:33;5.60;99.90
12700;DHT22;6414;49.570;6.060;2023-12-20T14:56:18;5.60;99.90
12700;DHT22;6414;49.570;6.060;2023-12-20T14:59:04;5.60;99.90
12700;DHT22;6414;49.570;6.060;2023-12-20T15:01:50;5.60;99.90
12700;DHT22;6414;49.570;6.060;2023-12-20T15:04:36;5.60;99.90
12700;DHT22;6414;49.570;6.060;2023-12-20T15:07:22;5.60;99.90
12700;DHT22;6414;49.570;6.060;2023-12-20T15:10:08;5.60;99.90
12700;DHT22;6414;49.570;6.060;2023-12-20T15:12:54;5.60;99.90
12700;DHT22;6414;49.570;6.060;2023-12-20T15:15:40;5.60;99.90
12700;DHT22;6414;49.570;6.060;2023-12-20T15:18:26;5.50;99.90
12700;DHT22;6414;49.570;6.060;2023-12-20T15:21:12;5.50;99.90
12700;DHT22;6414;49.570;6.060;2023-12-20T15:23:58;5.60;99.90
12700;DHT22;6414;49.570;6.060;2023-12-20T15:26:44;5.60;99.90
12700;DHT22;6414;49.570;6.060;2023-12-20T15:29:30;5.60;99.90
12700;DHT22;6414;49.570;6.060;2023-12-20T15:32:15;5.60;99.90
12700;DHT22;6414;49.570;6.060;2023-12-20T15:35:01;5.60;99.90
12700;DHT22;6414;49.570;6.060;2023-12-20T15:37:47;5.60;99.90
12700;DHT22;6414;49.570;6.060;2023-12-20T15:40:33;5.60;99.90
12700;DHT22;6414;49.570;6.060;2023-12-20T15:43:19;5.60;99.90
12700;DHT22;6414;49.570;6.060;2023-12-20T15:46:05;5.70;99.90
12700;DHT22;6414;49.570;6.060;2023-12-20T15:48:51;5.70;99.90
12700;DHT22;6414;49.570;6.060;2023-12-20T15:51:37;5.70;99.90
12700;DHT22;6414;49.570;6.060;2023-12-20T15:54:23;5.70;99.90
12700;DHT22;6414;49.570;6.060;2023-12-20T15:57:08;5.70;99.90
12700;DHT22;6414;49.570;6.060;2023-12-20T15:59:54;5.80;99.90
12700;DHT22;6414;49.570;6.060;2023-12-20T16:02:40;5.70;99.90
12700;DHT22;6414;49.570;6.060;2023-12-20T16:05:26;5.70;99.90
12700;DHT22;6414;49.570;6.060;2023-12-20T16:08:12;5.70;99.90
12700;DHT22;6414;49.570;6.060;2023-12-20T16:10:58;5.70;99.90
12700;DHT22;6414;49.570;6.060;2023-12-20T16:13:44;5.70;99.90
12700;DHT22;6414;49.570;6.060;2023-12-20T16:16:30;5.70;99.90
12700;DHT22;6414;49.570;6.060;2023-12-20T16:19:17;5.70;99.90
12700;DHT22;6414;49.570;6.060;2023-12-20T16:22:03;5.70;99.90
12700;DHT22;6414;49.570;6.060;2023-12-20T16:24:49;5.70;99.90
12700;DHT22;6414;49.570;6.060;2023-12-20T16:27:35;5.70;99.90
12700;DHT22;6414;49.570;6.060;2023-12-20T16:30:21;5.60;99.90
12700;DHT22;6414;49.570;6.060;2023-12-20T16:33:09;5.70;99.90
12700;DHT22;6414;49.570;6.060;2023-12-20T16:35:55;5.70;99.90
12700;DHT22;6414;49.570;6.060;2023-12-20T16:38:42;5.70;99.90
12700;DHT22;6414;49.570;6.060;2023-12-20T16:41:28;5.70;99.90
12700;DHT22;6414;49.570;6.060;2023-12-20T16:44:13;5.80;99.90
12700;DHT22;6414;49.570;6.060;2023-12-20T16:47:00;5.70;99.90
12700;DHT22;6414;49.570;6.060;2023-12-20T16:49:46;5.80;99.90
12700;DHT22;6414;49.570;6.060;2023-12-20T16:52:32;5.80;99.90
12700;DHT22;6414;49.570;6.060;2023-12-20T16:55:18;5.80;99.90
12700;DHT22;6414;49.570;6.060;2023-12-20T16:58:04;5.80;99.90
12700;DHT22;6414;49.570;6.060;2023-12-20T17:00:50;5.80;99.90
12700;DHT22;6414;49.570;6.060;2023-12-20T17:03:36;5.80;99.90
12700;DHT22;6414;49.570;6.060;2023-12-20T17:06:23;5.70;99.90
12700;DHT22;6414;49.570;6.060;2023-12-20T17:09:09;5.70;99.90
12700;DHT22;6414;49.570;6.060;2023-12-20T17:11:54;5.70;99.90
12700;DHT22;6414;49.570;6.060;2023-12-20T17:14:40;5.80;99.90
12700;DHT22;6414;49.570;6.060;2023-12-20T17:17:26;5.70;99.90
12700;DHT22;6414;49.570;6.060;2023-12-20T17:20:12;5.80;99.90
12700;DHT22;6414;49.570;6.060;2023-12-20T17:22:57;5.80;99.90
12700;DHT22;6414;49.570;6.060;2023-12-20T17:25:43;5.80;99.90
12700;DHT22;6414;49.570;6.060;2023-12-20T17:28:28;5.80;99.90
12700;DHT22;6414;49.570;6.060;2023-12-20T17:31:14;5.80;99.90
12700;DHT22;6414;49.570;6.060;2023-12-20T17:34:00;5.80;99.90
12700;DHT22;6414;49.570;6.060;2023-12-20T17:36:46;5.80;99.90
12700;DHT22;6414;49.570;6.060;2023-12-20T17:39:32;5.80;99.90
12700;DHT22;6414;49.570;6.060;2023-12-20T17:42:18;5.90;99.90
12700;DHT22;6414;49.570;6.060;2023-12-20T17:45:03;5.90;99.90
12700;DHT22;6414;49.570;6.060;2023-12-20T17:47:49;5.90;99.90
12700;DHT22;6414;49.570;6.060;2023-12-20T17:50:35;5.90;99.90
12700;DHT22;6414;49.570;6.060;2023-12-20T17:53:21;5.90;99.90
12700;DHT22;6414;49.570;6.060;2023-12-20T17:56:07;5.90;99.90
12700;DHT22;6414;49.570;6.060;2023-12-20T17:58:53;5.90;99.90
12700;DHT22;6414;49.570;6.060;2023-12-20T18:01:38;5.90;99.90
12700;DHT22;6414;49.570;6.060;2023-12-20T18:04:24;5.90;99.90
12700;DHT22;6414;49.570;6.060;2023-12-20T18:07:10;5.80;99.90